sensor_id;sensor_type;location;lat;lon;timestamp;temperature;humidity
16229;DHT22;8222;51.462;12.630;2022-11-03T00:01:40;8.80;99.90
16229;DHT22;8222;51.462;12.630;2022-11-03T00:04:10;8.80;99.90
16229;DHT22;8222;51.462;12.630;2022-11-03T00:06:37;8.70;99.90
16229;DHT22;8222;51.462;12.630;2022-11-03T00:09:06;8.70;99.90
16229;DHT22;8222;51.462;12.630;2022-11-03T00:11:33;8.70;99.90
16229;DHT22;8222;51.462;12.630;2022-11-03T00:13:59;8.80;99.90
16229;DHT22;8222;51.462;12.630;2022-11-03T00:16:25;8.80;99.90
16229;DHT22;8222;51.462;12.630;2022-11-03T00:18:52;8.80;99.90
16229;DHT22;8222;51.462;12.630;2022-11-03T00:21:18;8.80;99.90
16229;DHT22;8222;51.462;12.630;2022-11-03T00:23:46;8.90;99.90
16229;DHT22;8222;51.462;12.630;2022-11-03T00:26:23;8.80;99.90
16229;DHT22;8222;51.462;12.630;2022-11-03T00:28:51;8.90;99.90
16229;DHT22;8222;51.462;12.630;2022-11-03T00:31:23;8.80;99.90
16229;DHT22;8222;51.462;12.630;2022-11-03T00:33:50;8.90;99.90
16229;DHT22;8222;51.462;12.630;2022-11-03T00:36:20;8.70;99.90
16229;DHT22;8222;51.462;12.630;2022-11-03T00:38:46;8.80;99.90
16229;DHT22;8222;51.462;12.630;2022-11-03T00:41:15;8.70;99.90
16229;DHT22;8222;51.462;12.630;2022-11-03T00:43:47;8.80;99.90
16229;DHT22;8222;51.462;12.630;2022-11-03T00:46:23;8.70;99.90
16229;DHT22;8222;51.462;12.630;2022-11-03T00:48:51;8.80;99.90
16229;DHT22;8222;51.462;12.630;2022-11-03T00:51:22;8.80;99.90
16229;DHT22;8222;51.462;12.630;2022-11-03T00:53:54;8.80;99.90
16229;DHT22;8222;51.462;12.630;2022-11-03T00:56:22;8.80;99.90
16229;DHT22;8222;51.462;12.630;2022-11-03T00:58:51;8.80;99.90
16229;DHT22;8222;51.462;12.630;2022-11-03T01:01:22;8.80;99.90
16229;DHT22;8222;51.462;12.630;2022-11-03T01:03:50;8.80;99.90
16229;DHT22;8222;51.462;12.630;2022-11-03T01:06:38;8.70;99.90
16229;DHT22;8222;51.462;12.630;2022-11-03T01:11:47;8.70;99.90
16229;DHT22;8222;51.462;12.630;2022-11-03T01:14:14;8.70;99.90
16229;DHT22;8222;51.462;12.630;2022-11-03T01:16:40;8.70;99.90
16229;DHT22;8222;51.462;12.630;2022-11-03T01:19:06;8.70;99.90
16229;DHT22;8222;51.462;12.630;2022-11-03T01:21:33;8.70;99.90
16229;DHT22;8222;51.462;12.630;2022-11-03T01:24:02;8.70;99.90
16229;DHT22;8222;51.462;12.630;2022-11-03T01:26:28;8.70;99.90
16229;DHT22;8222;51.462;12.630;2022-11-03T01:28:55;8.70;99.90
16229;DHT22;8222;51.462;12.630;2022-11-03T01:31:22;8.70;99.90
16229;DHT22;8222;51.462;12.630;2022-11-03T01:33:50;8.70;99.90
16229;DHT22;8222;51.462;12.630;2022-11-03T01:36:17;8.70;99.90
16229;DHT22;8222;51.462;12.630;2022-11-03T01:38:43;8.70;99.90
16229;DHT22;8222;51.462;12.630;2022-11-03T01:41:13;8.70;99.90
16229;DHT22;8222;51.462;12.630;2022-11-03T01:43:39;8.80;99.90
16229;DHT22;8222;51.462;12.630;2022-11-03T01:46:26;8.70;99.90
16229;DHT22;8222;51.462;12.630;2022-11-03T01:49:17;8.60;99.90
16229;DHT22;8222;51.462;12.630;2022-11-03T01:51:46;8.60;99.90
16229;DHT22;8222;51.462;12.630;2022-11-03T01:54:19;8.70;99.90
16229;DHT22;8222;51.462;12.630;2022-11-03T01:56:46;8.60;99.90
16229;DHT22;8222;51.462;12.630;2022-11-03T01:59:14;8.60;99.90
16229;DHT22;8222;51.462;12.630;2022-11-03T02:01:41;8.70;99.90
16229;DHT22;8222;51.462;12.630;2022-11-03T02:04:19;8.60;99.90
16229;DHT22;8222;51.462;12.630;2022-11-03T02:06:51;8.70;99.90
16229;DHT22;8222;51.462;12.630;2022-11-03T02:09:18;8.60;99.90
16229;DHT22;8222;51.462;12.630;2022-11-03T02:11:44;8.70;99.90
16229;DHT22;8222;51.462;12.630;2022-11-03T02:14:28;8.60;99.90
16229;DHT22;8222;51.462;12.630;2022-11-03T02:16:58;8.70;99.90
16229;DHT22;8222;51.462;12.630;2022-11-03T02:19:43;8.70;99.90
16229;DHT22;8222;51.462;12.630;2022-11-03T02:24:50;8.70;99.90
16229;DHT22;8222;51.462;12.630;2022-11-03T02:27:17;8.70;99.90
16229;DHT22;8222;51.462;12.630;2022-11-03T02:29:44;8.80;99.90
16229;DHT22;8222;51.462;12.630;2022-11-03T02:32:24;8.70;99.90
16229;DHT22;8222;51.462;12.630;2022-11-03T02:35:16;8.80;99.90
16229;DHT22;8222;51.462;12.630;2022-11-03T02:37:47;8.70;99.90
16229;DHT22;8222;51.462;12.630;2022-11-03T02:40:35;8.80;99.90
16229;DHT22;8222;51.462;12.630;2022-11-03T02:43:02;8.80;99.90
16229;DHT22;8222;51.462;12.630;2022-11-03T02:45:30;8.80;99.90
16229;DHT22;8222;51.462;12.630;2022-11-03T02:47:58;8.80;99.90
16229;DHT22;8222;51.462;12.630;2022-11-03T02:50:30;8.80;99.90
16229;DHT22;8222;51.462;12.630;2022-11-03T02:52:57;8.90;99.90
16229;DHT22;8222;51.462;12.630;2022-11-03T02:55:36;8.80;99.90
16229;DHT22;8222;51.462;12.630;2022-11-03T03:01:11;8.90;99.90
16229;DHT22;8222;51.462;12.630;2022-11-03T03:03:48;8.80;99.90
16229;DHT22;8222;51.462;12.630;2022-11-03T03:08:53;8.80;99.90
16229;DHT22;8222;51.462;12.630;2022-11-03T03:11:20;8.70;99.90
16229;DHT22;8222;51.462;12.630;2022-11-03T03:14:05;8.80;99.90
16229;DHT22;8222;51.462;12.630;2022-11-03T03:16:34;8.60;99.90
16229;DHT22;8222;51.462;12.630;2022-11-03T03:25:24;8.60;99.90
16229;DHT22;8222;51.462;12.630;2022-11-03T03:27:57;8.50;99.90
16229;DHT22;8222;51.462;12.630;2022-11-03T03:30:23;8.50;99.90
16229;DHT22;8222;51.462;12.630;2022-11-03T03:32:50;8.40;99.90
16229;DHT22;8222;51.462;12.630;2022-11-03T03:35:23;8.40;99.90
16229;DHT22;8222;51.462;12.630;2022-11-03T03:37:53;8.50;99.90
16229;DHT22;8222;51.462;12.630;2022-11-03T03:40:29;8.50;99.90
16229;DHT22;8222;51.462;12.630;2022-11-03T03:42:56;8.40;99.90
16229;DHT22;8222;51.462;12.630;2022-11-03T03:45:23;8.40;99.90
16229;DHT22;8222;51.462;12.630;2022-11-03T03:47:50;8.50;99.90
16229;DHT22;8222;51.462;12.630;2022-11-03T03:50:16;8.40;99.90
16229;DHT22;8222;51.462;12.630;2022-11-03T03:52:41;8.40;99.90
16229;DHT22;8222;51.462;12.630;2022-11-03T03:55:17;8.40;99.90
16229;DHT22;8222;51.462;12.630;2022-11-03T03:57:44;8.40;99.90
16229;DHT22;8222;51.462;12.630;2022-11-03T04:00:14;8.30;99.90
16229;DHT22;8222;51.462;12.630;2022-11-03T04:02:41;8.20;99.90
16229;DHT22;8222;51.462;12.630;2022-11-03T04:05:08;8.10;99.90
16229;DHT22;8222;51.462;12.630;2022-11-03T04:07:34;8.10;99.90
16229;DHT22;8222;51.462;12.630;2022-11-03T04:10:12;8.10;99.90
16229;DHT22;8222;51.462;12.630;2022-11-03T04:12:41;8.10;99.90
16229;DHT22;8222;51.462;12.630;2022-11-03T04:15:25;8.10;99.90
16229;DHT22;8222;51.462;12.630;2022-11-03T04:18:09;8.10;99.90
16229;DHT22;8222;51.462;12.630;2022-11-03T04:20:56;8.20;99.90
16229;DHT22;8222;51.462;12.630;2022-11-03T04:23:40;8.10;99.90
16229;DHT22;8222;51.462;12.630;2022-11-03T04:26:11;8.20;99.90
16229;DHT22;8222;51.462;12.630;2022-11-03T04:28:37;8.20;99.90
16229;DHT22;8222;51.462;12.630;2022-11-03T04:31:08;8.10;99.90
16229;DHT22;8222;51.462;12.630;2022-11-03T04:33:34;8.10;99.90
16229;DHT22;8222;51.462;12.630;2022-11-03T04:36:14;8.20;99.90
16229;DHT22;8222;51.462;12.630;2022-11-03T04:38:42;8.10;99.90
16229;DHT22;8222;51.462;12.630;2022-11-03T04:41:23;8.20;99.90
16229;DHT22;8222;51.462;12.630;2022-11-03T04:43:51;8.20;99.90
16229;DHT22;8222;51.462;12.630;2022-11-03T04:46:24;8.20;99.90
16229;DHT22;8222;51.462;12.630;2022-11-03T04:48:52;8.10;99.90
16229;DHT22;8222;51.462;12.630;2022-11-03T04:51:24;8.00;99.90
16229;DHT22;8222;51.462;12.630;2022-11-03T04:53:58;8.10;99.90
16229;DHT22;8222;51.462;12.630;2022-11-03T04:56:25;8.00;99.90
16229;DHT22;8222;51.462;12.630;2022-11-03T04:58:52;8.00;99.90
16229;DHT22;8222;51.462;12.630;2022-11-03T05:01:20;7.90;99.90
16229;DHT22;8222;51.462;12.630;2022-11-03T05:03:48;8.00;99.90
16229;DHT22;8222;51.462;12.630;2022-11-03T05:06:20;7.90;99.90
16229;DHT22;8222;51.462;12.630;2022-11-03T05:08:56;7.90;99.90
16229;DHT22;8222;51.462;12.630;2022-11-03T05:11:36;7.80;99.90
16229;DHT22;8222;51.462;12.630;2022-11-03T05:16:52;7.80;99.90
16229;DHT22;8222;51.462;12.630;2022-11-03T05:19:30;7.80;99.90
16229;DHT22;8222;51.462;12.630;2022-11-03T05:21:59;7.80;99.90
16229;DHT22;8222;51.462;12.630;2022-11-03T05:24:27;7.60;99.90
16229;DHT22;8222;51.462;12.630;2022-11-03T05:26:55;7.70;99.90
16229;DHT22;8222;51.462;12.630;2022-11-03T05:31:51;7.70;99.90
16229;DHT22;8222;51.462;12.630;2022-11-03T05:34:21;7.70;99.90
16229;DHT22;8222;51.462;12.630;2022-11-03T05:36:50;7.80;99.90
16229;DHT22;8222;51.462;12.630;2022-11-03T05:39:37;7.80;99.90
16229;DHT22;8222;51.462;12.630;2022-11-03T05:44:48;7.70;99.90
16229;DHT22;8222;51.462;12.630;2022-11-03T05:47:19;7.70;99.90
16229;DHT22;8222;51.462;12.630;2022-11-03T05:49:50;7.70;99.90
16229;DHT22;8222;51.462;12.630;2022-11-03T05:52:23;8.30;99.90
16229;DHT22;8222;51.462;12.630;2022-11-03T05:54:51;7.60;99.90
16229;DHT22;8222;51.462;12.630;2022-11-03T05:57:18;7.60;99.90
16229;DHT22;8222;51.462;12.630;2022-11-03T05:59:46;7.60;99.90
16229;DHT22;8222;51.462;12.630;2022-11-03T06:02:39;7.60;99.90
16229;DHT22;8222;51.462;12.630;2022-11-03T06:05:17;7.60;99.90
16229;DHT22;8222;51.462;12.630;2022-11-03T06:07:43;7.60;99.90
16229;DHT22;8222;51.462;12.630;2022-11-03T06:10:33;7.50;99.90
16229;DHT22;8222;51.462;12.630;2022-11-03T06:13:03;7.60;99.90
16229;DHT22;8222;51.462;12.630;2022-11-03T06:15:34;7.40;99.90
16229;DHT22;8222;51.462;12.630;2022-11-03T06:18:12;7.30;99.90
16229;DHT22;8222;51.462;12.630;2022-11-03T06:20:39;7.40;99.90
16229;DHT22;8222;51.462;12.630;2022-11-03T06:23:11;7.40;99.90
16229;DHT22;8222;51.462;12.630;2022-11-03T06:25:40;7.50;99.90
16229;DHT22;8222;51.462;12.630;2022-11-03T06:28:23;8.10;99.90
16229;DHT22;8222;51.462;12.630;2022-11-03T06:30:49;7.40;99.90
16229;DHT22;8222;51.462;12.630;2022-11-03T06:33:21;7.40;99.90
16229;DHT22;8222;51.462;12.630;2022-11-03T06:35:51;7.60;99.90
16229;DHT22;8222;51.462;12.630;2022-11-03T06:38:26;7.60;99.90
16229;DHT22;8222;51.462;12.630;2022-11-03T06:40:52;7.70;99.90
16229;DHT22;8222;51.462;12.630;2022-11-03T06:43:26;7.70;99.90
16229;DHT22;8222;51.462;12.630;2022-11-03T06:45:57;7.80;99.90
16229;DHT22;8222;51.462;12.630;2022-11-03T06:48:28;7.80;99.90
16229;DHT22;8222;51.462;12.630;2022-11-03T06:50:55;7.90;99.90
16229;DHT22;8222;51.462;12.630;2022-11-03T06:53:30;8.00;99.90
16229;DHT22;8222;51.462;12.630;2022-11-03T06:55:57;8.00;99.90
16229;DHT22;8222;51.462;12.630;2022-11-03T06:58:27;8.00;99.90
16229;DHT22;8222;51.462;12.630;2022-11-03T07:00:55;8.20;99.90
16229;DHT22;8222;51.462;12.630;2022-11-03T07:03:28;8.20;99.90
16229;DHT22;8222;51.462;12.630;2022-11-03T07:06:22;8.20;99.90
16229;DHT22;8222;51.462;12.630;2022-11-03T07:08:56;8.30;99.90
16229;DHT22;8222;51.462;12.630;2022-11-03T07:11:26;8.30;99.90
16229;DHT22;8222;51.462;12.630;2022-11-03T07:13:55;8.40;99.90
16229;DHT22;8222;51.462;12.630;2022-11-03T07:16:28;8.40;99.90
16229;DHT22;8222;51.462;12.630;2022-11-03T07:18:58;8.50;99.90
16229;DHT22;8222;51.462;12.630;2022-11-03T07:24:21;8.70;99.90
16229;DHT22;8222;51.462;12.630;2022-11-03T07:29:32;8.80;99.90
16229;DHT22;8222;51.462;12.630;2022-11-03T07:31:59;8.90;99.90
16229;DHT22;8222;51.462;12.630;2022-11-03T07:34:30;9.00;99.90
16229;DHT22;8222;51.462;12.630;2022-11-03T07:36:57;9.20;99.90
16229;DHT22;8222;51.462;12.630;2022-11-03T07:39:32;9.10;99.90
16229;DHT22;8222;51.462;12.630;2022-11-03T07:41:59;9.20;99.90
16229;DHT22;8222;51.462;12.630;2022-11-03T07:44:28;9.20;99.90
16229;DHT22;8222;51.462;12.630;2022-11-03T07:46:54;9.20;99.90
16229;DHT22;8222;51.462;12.630;2022-11-03T07:49:28;9.20;99.90
16229;DHT22;8222;51.462;12.630;2022-11-03T07:51:55;9.50;99.90
16229;DHT22;8222;51.462;12.630;2022-11-03T07:54:27;9.30;99.90
16229;DHT22;8222;51.462;12.630;2022-11-03T07:57:04;9.40;99.90
16229;DHT22;8222;51.462;12.630;2022-11-03T07:59:34;9.40;99.90
16229;DHT22;8222;51.462;12.630;2022-11-03T08:02:00;9.60;99.90
16229;DHT22;8222;51.462;12.630;2022-11-03T08:04:30;9.60;99.90
16229;DHT22;8222;51.462;12.630;2022-11-03T08:06:57;10.10;99.90
16229;DHT22;8222;51.462;12.630;2022-11-03T08:09:22;9.80;99.90
16229;DHT22;8222;51.462;12.630;2022-11-03T08:11:48;10.00;99.90
16229;DHT22;8222;51.462;12.630;2022-11-03T08:14:14;10.10;99.90
16229;DHT22;8222;51.462;12.630;2022-11-03T08:16:40;10.30;99.90
16229;DHT22;8222;51.462;12.630;2022-11-03T08:19:06;10.40;99.90
16229;DHT22;8222;51.462;12.630;2022-11-03T08:21:31;10.60;99.90
16229;DHT22;8222;51.462;12.630;2022-11-03T08:23:57;10.80;99.90
16229;DHT22;8222;51.462;12.630;2022-11-03T08:26:23;10.90;99.90
16229;DHT22;8222;51.462;12.630;2022-11-03T08:28:49;11.20;99.90
16229;DHT22;8222;51.462;12.630;2022-11-03T08:31:14;11.30;99.90
16229;DHT22;8222;51.462;12.630;2022-11-03T08:33:40;11.50;99.90
16229;DHT22;8222;51.462;12.630;2022-11-03T08:36:06;11.50;99.90
16229;DHT22;8222;51.462;12.630;2022-11-03T08:38:33;11.70;99.90
16229;DHT22;8222;51.462;12.630;2022-11-03T08:40:58;11.90;99.90
16229;DHT22;8222;51.462;12.630;2022-11-03T08:43:24;12.10;99.90
16229;DHT22;8222;51.462;12.630;2022-11-03T08:45:50;12.30;99.90
16229;DHT22;8222;51.462;12.630;2022-11-03T08:48:23;12.50;99.90
16229;DHT22;8222;51.462;12.630;2022-11-03T08:50:52;12.60;99.90
16229;DHT22;8222;51.462;12.630;2022-11-03T08:53:19;12.70;99.90
16229;DHT22;8222;51.462;12.630;2022-11-03T08:55:45;12.80;99.90
16229;DHT22;8222;51.462;12.630;2022-11-03T08:58:11;12.90;99.90
16229;DHT22;8222;51.462;12.630;2022-11-03T09:00:39;13.10;99.90
16229;DHT22;8222;51.462;12.630;2022-11-03T09:03:04;13.20;99.90
16229;DHT22;8222;51.462;12.630;2022-11-03T09:05:30;13.30;99.90
16229;DHT22;8222;51.462;12.630;2022-11-03T09:07:56;13.40;99.90
16229;DHT22;8222;51.462;12.630;2022-11-03T09:10:21;13.50;99.90
16229;DHT22;8222;51.462;12.630;2022-11-03T09:12:49;13.90;99.90
16229;DHT22;8222;51.462;12.630;2022-11-03T09:15:15;14.00;99.90
16229;DHT22;8222;51.462;12.630;2022-11-03T09:17:40;14.30;99.90
16229;DHT22;8222;51.462;12.630;2022-11-03T09:20:06;14.30;99.90
16229;DHT22;8222;51.462;12.630;2022-11-03T09:22:32;14.30;99.90
16229;DHT22;8222;51.462;12.630;2022-11-03T09:24:58;14.30;99.90
16229;DHT22;8222;51.462;12.630;2022-11-03T09:27:23;14.50;99.90
16229;DHT22;8222;51.462;12.630;2022-11-03T09:29:49;14.80;99.90
16229;DHT22;8222;51.462;12.630;2022-11-03T09:32:15;14.90;99.90
16229;DHT22;8222;51.462;12.630;2022-11-03T09:34:41;15.10;99.90
16229;DHT22;8222;51.462;12.630;2022-11-03T09:37:08;15.20;99.90
16229;DHT22;8222;51.462;12.630;2022-11-03T09:39:34;15.40;99.90
16229;DHT22;8222;51.462;12.630;2022-11-03T09:42:00;15.50;99.90
16229;DHT22;8222;51.462;12.630;2022-11-03T09:44:30;15.50;99.90
16229;DHT22;8222;51.462;12.630;2022-11-03T09:46:57;15.60;99.90
16229;DHT22;8222;51.462;12.630;2022-11-03T09:49:23;15.80;99.90
16229;DHT22;8222;51.462;12.630;2022-11-03T09:51:49;16.00;99.90
16229;DHT22;8222;51.462;12.630;2022-11-03T09:54:16;16.00;99.90
16229;DHT22;8222;51.462;12.630;2022-11-03T09:56:42;16.10;99.90
16229;DHT22;8222;51.462;12.630;2022-11-03T09:59:19;16.10;99.90
16229;DHT22;8222;51.462;12.630;2022-11-03T10:01:48;16.20;99.90
16229;DHT22;8222;51.462;12.630;2022-11-03T10:04:27;16.20;99.90
16229;DHT22;8222;51.462;12.630;2022-11-03T10:06:56;16.20;99.90
16229;DHT22;8222;51.462;12.630;2022-11-03T10:09:24;16.20;99.90
16229;DHT22;8222;51.462;12.630;2022-11-03T10:11:53;16.30;99.90
16229;DHT22;8222;51.462;12.630;2022-11-03T10:14:19;16.30;99.90
16229;DHT22;8222;51.462;12.630;2022-11-03T10:16:56;16.40;99.90
16229;DHT22;8222;51.462;12.630;2022-11-03T10:19:24;16.50;99.90
16229;DHT22;8222;51.462;12.630;2022-11-03T10:21:51;16.60;99.90
16229;DHT22;8222;51.462;12.630;2022-11-03T10:24:18;16.70;99.90
16229;DHT22;8222;51.462;12.630;2022-11-03T10:26:49;16.80;99.90
16229;DHT22;8222;51.462;12.630;2022-11-03T10:29:20;16.70;99.90
16229;DHT22;8222;51.462;12.630;2022-11-03T10:31:48;16.70;99.90
16229;DHT22;8222;51.462;12.630;2022-11-03T10:34:36;16.50;99.90
16229;DHT22;8222;51.462;12.630;2022-11-03T10:39:41;16.50;99.90
16229;DHT22;8222;51.462;12.630;2022-11-03T10:44:44;16.70;99.90
16229;DHT22;8222;51.462;12.630;2022-11-03T10:49:47;16.70;99.90
16229;DHT22;8222;51.462;12.630;2022-11-03T10:52:19;16.70;99.90
16229;DHT22;8222;51.462;12.630;2022-11-03T10:54:47;16.80;99.90
16229;DHT22;8222;51.462;12.630;2022-11-03T10:57:15;16.80;99.90
16229;DHT22;8222;51.462;12.630;2022-11-03T10:59:43;17.00;99.90
16229;DHT22;8222;51.462;12.630;2022-11-03T11:02:22;17.00;99.90
16229;DHT22;8222;51.462;12.630;2022-11-03T11:04:57;16.90;99.90
16229;DHT22;8222;51.462;12.630;2022-11-03T11:09:54;16.90;99.90
16229;DHT22;8222;51.462;12.630;2022-11-03T11:12:24;16.90;99.90
16229;DHT22;8222;51.462;12.630;2022-11-03T11:15:00;17.00;99.90
16229;DHT22;8222;51.462;12.630;2022-11-03T11:17:44;17.00;99.90
16229;DHT22;8222;51.462;12.630;2022-11-03T11:22:46;17.20;99.90
16229;DHT22;8222;51.462;12.630;2022-11-03T11:25:12;17.30;99.90
16229;DHT22;8222;51.462;12.630;2022-11-03T11:41:13;17.50;99.90
16229;DHT22;8222;51.462;12.630;2022-11-03T11:43:39;17.50;99.90
16229;DHT22;8222;51.462;12.630;2022-11-03T11:51:26;17.50;99.90
16229;DHT22;8222;51.462;12.630;2022-11-03T11:53:52;17.70;99.90
16229;DHT22;8222;51.462;12.630;2022-11-03T11:56:18;17.70;99.90
16229;DHT22;8222;51.462;12.630;2022-11-03T11:58:49;17.70;99.90
16229;DHT22;8222;51.462;12.630;2022-11-03T12:01:30;17.70;99.90
16229;DHT22;8222;51.462;12.630;2022-11-03T12:04:16;17.80;99.90
16229;DHT22;8222;51.462;12.630;2022-11-03T12:06:42;17.80;99.90
16229;DHT22;8222;51.462;12.630;2022-11-03T12:09:16;17.90;99.90
16229;DHT22;8222;51.462;12.630;2022-11-03T12:11:46;18.00;99.90
16229;DHT22;8222;51.462;12.630;2022-11-03T12:14:40;18.00;99.90
16229;DHT22;8222;51.462;12.630;2022-11-03T12:19:50;18.20;99.90
16229;DHT22;8222;51.462;12.630;2022-11-03T12:25:00;18.00;99.90
16229;DHT22;8222;51.462;12.630;2022-11-03T12:30:07;18.00;99.90
16229;DHT22;8222;51.462;12.630;2022-11-03T12:32:36;18.00;99.90
16229;DHT22;8222;51.462;12.630;2022-11-03T12:35:03;17.80;99.90
16229;DHT22;8222;51.462;12.630;2022-11-03T12:37:28;17.70;99.90
16229;DHT22;8222;51.462;12.630;2022-11-03T12:39:54;17.60;99.90
16229;DHT22;8222;51.462;12.630;2022-11-03T12:42:21;17.60;99.90
16229;DHT22;8222;51.462;12.630;2022-11-03T12:44:49;17.50;99.90
16229;DHT22;8222;51.462;12.630;2022-11-03T12:47:15;17.40;99.90
16229;DHT22;8222;51.462;12.630;2022-11-03T12:49:42;17.50;99.90
16229;DHT22;8222;51.462;12.630;2022-11-03T12:52:08;17.30;99.90
16229;DHT22;8222;51.462;12.630;2022-11-03T12:54:34;17.20;99.90
16229;DHT22;8222;51.462;12.630;2022-11-03T12:57:00;17.30;99.90
16229;DHT22;8222;51.462;12.630;2022-11-03T12:59:28;17.30;99.90
16229;DHT22;8222;51.462;12.630;2022-11-03T13:01:54;17.30;99.90
16229;DHT22;8222;51.462;12.630;2022-11-03T13:04:19;17.20;99.90
16229;DHT22;8222;51.462;12.630;2022-11-03T13:06:47;16.90;99.90
16229;DHT22;8222;51.462;12.630;2022-11-03T13:09:12;16.80;99.90
16229;DHT22;8222;51.462;12.630;2022-11-03T13:11:38;16.80;99.90
16229;DHT22;8222;51.462;12.630;2022-11-03T13:14:23;16.80;99.90
16229;DHT22;8222;51.462;12.630;2022-11-03T13:16:51;16.80;99.90
16229;DHT22;8222;51.462;12.630;2022-11-03T13:19:16;16.80;99.90
16229;DHT22;8222;51.462;12.630;2022-11-03T13:21:42;16.90;99.90
16229;DHT22;8222;51.462;12.630;2022-11-03T13:24:08;16.80;99.90
16229;DHT22;8222;51.462;12.630;2022-11-03T13:26:33;16.60;99.90
16229;DHT22;8222;51.462;12.630;2022-11-03T13:28:59;16.60;99.90
16229;DHT22;8222;51.462;12.630;2022-11-03T13:31:24;16.70;99.90
16229;DHT22;8222;51.462;12.630;2022-11-03T13:33:50;16.70;99.90
16229;DHT22;8222;51.462;12.630;2022-11-03T13:36:16;17.10;99.90
16229;DHT22;8222;51.462;12.630;2022-11-03T13:38:42;16.80;99.90
16229;DHT22;8222;51.462;12.630;2022-11-03T13:41:08;16.70;99.90
16229;DHT22;8222;51.462;12.630;2022-11-03T13:43:33;16.80;99.90
16229;DHT22;8222;51.462;12.630;2022-11-03T13:45:59;16.80;99.90
16229;DHT22;8222;51.462;12.630;2022-11-03T13:48:27;16.80;99.90
16229;DHT22;8222;51.462;12.630;2022-11-03T13:50:52;16.80;99.90
16229;DHT22;8222;51.462;12.630;2022-11-03T13:53:18;16.80;99.90
16229;DHT22;8222;51.462;12.630;2022-11-03T13:55:44;16.90;99.90
16229;DHT22;8222;51.462;12.630;2022-11-03T13:58:10;16.90;99.90
16229;DHT22;8222;51.462;12.630;2022-11-03T14:00:36;17.00;99.90
16229;DHT22;8222;51.462;12.630;2022-11-03T14:03:02;16.90;99.90
16229;DHT22;8222;51.462;12.630;2022-11-03T14:05:30;16.90;99.90
16229;DHT22;8222;51.462;12.630;2022-11-03T14:07:56;16.90;99.90
16229;DHT22;8222;51.462;12.630;2022-11-03T14:10:22;16.70;99.90
16229;DHT22;8222;51.462;12.630;2022-11-03T14:12:49;16.70;99.90
16229;DHT22;8222;51.462;12.630;2022-11-03T14:15:15;16.70;99.90
16229;DHT22;8222;51.462;12.630;2022-11-03T14:17:40;16.70;99.90
16229;DHT22;8222;51.462;12.630;2022-11-03T14:20:08;16.60;99.90
16229;DHT22;8222;51.462;12.630;2022-11-03T14:22:35;16.40;99.90
16229;DHT22;8222;51.462;12.630;2022-11-03T14:25:01;16.30;99.90
16229;DHT22;8222;51.462;12.630;2022-11-03T14:27:27;16.20;99.90
16229;DHT22;8222;51.462;12.630;2022-11-03T14:29:52;16.00;99.90
16229;DHT22;8222;51.462;12.630;2022-11-03T14:32:18;15.90;99.90
16229;DHT22;8222;51.462;12.630;2022-11-03T14:34:44;16.00;99.90
16229;DHT22;8222;51.462;12.630;2022-11-03T14:37:12;16.00;99.90
16229;DHT22;8222;51.462;12.630;2022-11-03T14:39:39;16.10;99.90
16229;DHT22;8222;51.462;12.630;2022-11-03T14:42:05;16.10;99.90
16229;DHT22;8222;51.462;12.630;2022-11-03T14:44:37;16.10;99.90
16229;DHT22;8222;51.462;12.630;2022-11-03T14:47:05;15.90;99.90
16229;DHT22;8222;51.462;12.630;2022-11-03T14:49:34;15.90;99.90
16229;DHT22;8222;51.462;12.630;2022-11-03T14:52:01;15.70;99.90
16229;DHT22;8222;51.462;12.630;2022-11-03T14:54:28;15.70;99.90
16229;DHT22;8222;51.462;12.630;2022-11-03T14:56:54;15.60;99.90
16229;DHT22;8222;51.462;12.630;2022-11-03T14:59:21;15.50;99.90
16229;DHT22;8222;51.462;12.630;2022-11-03T15:01:47;15.60;99.90
16229;DHT22;8222;51.462;12.630;2022-11-03T15:04:13;15.50;99.90
16229;DHT22;8222;51.462;12.630;2022-11-03T15:06:40;15.40;99.90
16229;DHT22;8222;51.462;12.630;2022-11-03T15:09:06;15.30;99.90
16229;DHT22;8222;51.462;12.630;2022-11-03T15:11:32;15.30;99.90
16229;DHT22;8222;51.462;12.630;2022-11-03T15:13:58;15.20;99.90
16229;DHT22;8222;51.462;12.630;2022-11-03T15:16:24;15.20;99.90
16229;DHT22;8222;51.462;12.630;2022-11-03T15:18:51;15.10;99.90
16229;DHT22;8222;51.462;12.630;2022-11-03T15:21:17;15.10;99.90
16229;DHT22;8222;51.462;12.630;2022-11-03T15:23:43;15.10;99.90
16229;DHT22;8222;51.462;12.630;2022-11-03T15:26:09;15.10;99.90
16229;DHT22;8222;51.462;12.630;2022-11-03T15:28:36;15.10;99.90
16229;DHT22;8222;51.462;12.630;2022-11-03T15:31:02;15.00;99.90
16229;DHT22;8222;51.462;12.630;2022-11-03T15:33:28;15.00;99.90
16229;DHT22;8222;51.462;12.630;2022-11-03T15:35:54;14.90;99.90
16229;DHT22;8222;51.462;12.630;2022-11-03T15:38:21;14.90;99.90
16229;DHT22;8222;51.462;12.630;2022-11-03T15:40:47;14.90;99.90
16229;DHT22;8222;51.462;12.630;2022-11-03T15:43:12;14.80;99.90
16229;DHT22;8222;51.462;12.630;2022-11-03T15:45:38;14.80;99.90
16229;DHT22;8222;51.462;12.630;2022-11-03T15:48:05;14.70;99.90
16229;DHT22;8222;51.462;12.630;2022-11-03T15:50:33;14.60;99.90
16229;DHT22;8222;51.462;12.630;2022-11-03T15:52:59;14.60;99.90
16229;DHT22;8222;51.462;12.630;2022-11-03T15:55:24;14.50;99.90
16229;DHT22;8222;51.462;12.630;2022-11-03T15:57:50;14.40;99.90
16229;DHT22;8222;51.462;12.630;2022-11-03T16:00:16;14.30;99.90
16229;DHT22;8222;51.462;12.630;2022-11-03T16:02:44;14.30;99.90
16229;DHT22;8222;51.462;12.630;2022-11-03T16:05:10;14.30;99.90
16229;DHT22;8222;51.462;12.630;2022-11-03T16:07:36;14.20;99.90
16229;DHT22;8222;51.462;12.630;2022-11-03T16:10:02;14.10;99.90
16229;DHT22;8222;51.462;12.630;2022-11-03T16:12:28;14.10;99.90
16229;DHT22;8222;51.462;12.630;2022-11-03T16:14:56;14.00;99.90
16229;DHT22;8222;51.462;12.630;2022-11-03T16:17:21;14.00;99.90
16229;DHT22;8222;51.462;12.630;2022-11-03T16:19:48;14.00;99.90
16229;DHT22;8222;51.462;12.630;2022-11-03T16:22:15;14.00;99.90
16229;DHT22;8222;51.462;12.630;2022-11-03T16:24:42;14.00;99.90
16229;DHT22;8222;51.462;12.630;2022-11-03T16:27:10;13.90;99.90
16229;DHT22;8222;51.462;12.630;2022-11-03T16:29:36;13.90;99.90
16229;DHT22;8222;51.462;12.630;2022-11-03T16:32:02;13.80;99.90
16229;DHT22;8222;51.462;12.630;2022-11-03T16:34:27;13.90;99.90
16229;DHT22;8222;51.462;12.630;2022-11-03T16:36:53;13.90;99.90
16229;DHT22;8222;51.462;12.630;2022-11-03T16:39:20;13.80;99.90
16229;DHT22;8222;51.462;12.630;2022-11-03T16:41:46;13.90;99.90
16229;DHT22;8222;51.462;12.630;2022-11-03T16:44:11;13.80;99.90
16229;DHT22;8222;51.462;12.630;2022-11-03T16:46:37;13.80;99.90
16229;DHT22;8222;51.462;12.630;2022-11-03T16:49:03;13.70;99.90
16229;DHT22;8222;51.462;12.630;2022-11-03T16:51:28;14.30;99.90
16229;DHT22;8222;51.462;12.630;2022-11-03T16:53:54;13.70;99.90
16229;DHT22;8222;51.462;12.630;2022-11-03T16:56:22;13.70;99.90
16229;DHT22;8222;51.462;12.630;2022-11-03T16:58:49;13.70;99.90
16229;DHT22;8222;51.462;12.630;2022-11-03T17:01:15;13.60;99.90